KRNC/RNC METAR and TAF weather

Enter ICAO airport designator
Station Type Date Time Source
KRNC METAR 2019/11/18 14:15 UTC NOAA

KRNC 181415Z AUTO 23003KT 10SM CLR 05/02 A2987 RMK A01


Station Type Date Time Source
KRNC Decoded METAR 2019/11/18 14:15 UTC NOAA

Station name not available
Nov 18, 2019 - 09:15 AM EST / 2019.11.18 1415 UTC
Wind: from the SW (230 degrees) at 3 MPH (3 KT):0
Visibility: 10 mile(s):0
Sky conditions: clear
Temperature: 41 F (5 C)
Dew Point: 35 F (2 C)
Relative Humidity: 80%
Pressure (altimeter): 29.87 in. Hg (1011 hPa)
ob: KRNC 181415Z AUTO 23003KT 10SM CLR 05/02 A2987 RMK A01
cycle: 14

Station Type Date Time Source
KRNC TAF 2009/08/31 19:45 UTC NOAA

METAR KRNC 311945Z AUTO 35008KT 10SM CLR 25/12 A3011
RMK AO1 T02500116 $

Example: see airport list